sensor_id;sensor_type;location;lat;lon;timestamp;P1;durP1;ratioP1;P2;durP2;ratioP2
65971;SDS011;52726;48.852;9.152;2022-11-15T00:01:51;9.57;;;2.78;;
65971;SDS011;52726;48.852;9.152;2022-11-15T00:04:16;4.25;;;2.58;;
65971;SDS011;52726;48.852;9.152;2022-11-15T00:06:44;4.68;;;2.85;;
65971;SDS011;52726;48.852;9.152;2022-11-15T00:09:10;5.28;;;2.97;;
65971;SDS011;52726;48.852;9.152;2022-11-15T00:11:35;4.25;;;2.67;;
65971;SDS011;52726;48.852;9.152;2022-11-15T00:14:04;4.25;;;2.85;;
65971;SDS011;52726;48.852;9.152;2022-11-15T00:16:29;3.72;;;2.70;;
65971;SDS011;52726;48.852;9.152;2022-11-15T00:18:54;4.60;;;2.55;;
65971;SDS011;52726;48.852;9.152;2022-11-15T00:21:22;3.67;;;2.53;;
65971;SDS011;52726;48.852;9.152;2022-11-15T00:23:47;6.75;;;2.10;;
65971;SDS011;52726;48.852;9.152;2022-11-15T00:26:13;3.42;;;2.40;;
65971;SDS011;52726;48.852;9.152;2022-11-15T00:28:43;6.15;;;2.13;;
65971;SDS011;52726;48.852;9.152;2022-11-15T00:31:10;3.28;;;1.90;;
65971;SDS011;52726;48.852;9.152;2022-11-15T00:33:38;5.35;;;1.80;;
65971;SDS011;52726;48.852;9.152;2022-11-15T00:36:04;1.92;;;1.48;;
65971;SDS011;52726;48.852;9.152;2022-11-15T00:38:32;2.97;;;1.60;;
65971;SDS011;52726;48.852;9.152;2022-11-15T00:40:58;1.75;;;1.65;;
65971;SDS011;52726;48.852;9.152;2022-11-15T00:43:26;3.00;;;1.60;;
65971;SDS011;52726;48.852;9.152;2022-11-15T00:45:52;2.05;;;1.77;;
65971;SDS011;52726;48.852;9.152;2022-11-15T00:48:17;1.98;;;1.65;;
65971;SDS011;52726;48.852;9.152;2022-11-15T00:50:45;2.38;;;1.55;;
65971;SDS011;52726;48.852;9.152;2022-11-15T00:53:10;1.67;;;1.40;;
65971;SDS011;52726;48.852;9.152;2022-11-15T00:55:36;3.15;;;1.60;;
65971;SDS011;52726;48.852;9.152;2022-11-15T00:58:02;4.97;;;1.98;;
65971;SDS011;52726;48.852;9.152;2022-11-15T01:00:27;5.07;;;2.00;;
65971;SDS011;52726;48.852;9.152;2022-11-15T01:03:02;2.05;;;1.55;;
65971;SDS011;52726;48.852;9.152;2022-11-15T01:05:28;2.05;;;1.80;;
65971;SDS011;52726;48.852;9.152;2022-11-15T01:07:55;2.67;;;1.85;;
65971;SDS011;52726;48.852;9.152;2022-11-15T01:10:21;3.22;;;2.00;;
65971;SDS011;52726;48.852;9.152;2022-11-15T01:12:54;4.65;;;1.67;;
65971;SDS011;52726;48.852;9.152;2022-11-15T01:15:20;4.38;;;1.77;;
65971;SDS011;52726;48.852;9.152;2022-11-15T01:17:45;4.63;;;1.85;;
65971;SDS011;52726;48.852;9.152;2022-11-15T01:20:11;1.73;;;1.52;;
65971;SDS011;52726;48.852;9.152;2022-11-15T01:22:36;2.70;;;1.58;;
65971;SDS011;52726;48.852;9.152;2022-11-15T01:25:02;2.92;;;1.50;;
65971;SDS011;52726;48.852;9.152;2022-11-15T01:27:28;1.75;;;1.58;;
65971;SDS011;52726;48.852;9.152;2022-11-15T01:29:53;4.57;;;1.75;;
65971;SDS011;52726;48.852;9.152;2022-11-15T01:32:18;3.47;;;1.70;;
65971;SDS011;52726;48.852;9.152;2022-11-15T01:34:44;2.58;;;1.77;;
65971;SDS011;52726;48.852;9.152;2022-11-15T01:37:10;2.80;;;1.55;;
65971;SDS011;52726;48.852;9.152;2022-11-15T01:39:39;5.32;;;1.88;;
65971;SDS011;52726;48.852;9.152;2022-11-15T01:42:04;1.73;;;1.52;;
65971;SDS011;52726;48.852;9.152;2022-11-15T01:46:55;2.33;;;1.65;;
65971;SDS011;52726;48.852;9.152;2022-11-15T01:49:22;6.47;;;2.13;;
65971;SDS011;52726;48.852;9.152;2022-11-15T01:51:49;2.83;;;1.60;;
65971;SDS011;52726;48.852;9.152;2022-11-15T01:54:15;3.35;;;1.75;;
65971;SDS011;52726;48.852;9.152;2022-11-15T01:56:45;2.13;;;1.85;;
65971;SDS011;52726;48.852;9.152;2022-11-15T01:59:14;2.05;;;1.85;;
65971;SDS011;52726;48.852;9.152;2022-11-15T02:01:40;3.42;;;2.10;;
65971;SDS011;52726;48.852;9.152;2022-11-15T02:04:09;3.28;;;1.98;;
65971;SDS011;52726;48.852;9.152;2022-11-15T02:06:45;3.67;;;2.10;;
65971;SDS011;52726;48.852;9.152;2022-11-15T02:09:13;2.38;;;1.60;;
65971;SDS011;52726;48.852;9.152;2022-11-15T02:11:39;3.42;;;2.05;;
65971;SDS011;52726;48.852;9.152;2022-11-15T02:14:06;2.60;;;1.90;;
65971;SDS011;52726;48.852;9.152;2022-11-15T02:16:42;2.65;;;1.70;;
65971;SDS011;52726;48.852;9.152;2022-11-15T02:24:35;2.95;;;1.48;;
65971;SDS011;52726;48.852;9.152;2022-11-15T02:30:43;4.05;;;1.52;;
65971;SDS011;52726;48.852;9.152;2022-11-15T02:33:15;3.10;;;1.92;;
65971;SDS011;52726;48.852;9.152;2022-11-15T02:36:06;2.22;;;1.83;;
65971;SDS011;52726;48.852;9.152;2022-11-15T02:39:03;2.15;;;1.60;;
65971;SDS011;52726;48.852;9.152;2022-11-15T02:41:51;3.20;;;2.00;;
65971;SDS011;52726;48.852;9.152;2022-11-15T02:44:24;3.67;;;1.80;;
65971;SDS011;52726;48.852;9.152;2022-11-15T02:46:59;3.22;;;1.95;;
65971;SDS011;52726;48.852;9.152;2022-11-15T02:49:47;2.92;;;2.00;;
65971;SDS011;52726;48.852;9.152;2022-11-15T02:52:19;2.70;;;1.45;;
65971;SDS011;52726;48.852;9.152;2022-11-15T02:54:59;2.97;;;2.05;;
65971;SDS011;52726;48.852;9.152;2022-11-15T03:05:53;3.90;;;1.90;;
65971;SDS011;52726;48.852;9.152;2022-11-15T03:11:38;2.33;;;1.70;;
65971;SDS011;52726;48.852;9.152;2022-11-15T03:14:14;5.28;;;2.03;;
65971;SDS011;52726;48.852;9.152;2022-11-15T03:16:48;4.95;;;1.92;;
65971;SDS011;52726;48.852;9.152;2022-11-15T03:19:29;3.50;;;2.10;;
65971;SDS011;52726;48.852;9.152;2022-11-15T03:21:59;2.35;;;1.73;;
65971;SDS011;52726;48.852;9.152;2022-11-15T03:24:28;4.18;;;1.85;;
65971;SDS011;52726;48.852;9.152;2022-11-15T03:26:55;3.63;;;1.80;;
65971;SDS011;52726;48.852;9.152;2022-11-15T03:29:25;6.45;;;2.42;;
65971;SDS011;52726;48.852;9.152;2022-11-15T03:31:56;2.47;;;1.92;;
65971;SDS011;52726;48.852;9.152;2022-11-15T03:36:54;3.53;;;2.10;;
65971;SDS011;52726;48.852;9.152;2022-11-15T03:39:19;4.47;;;2.13;;
65971;SDS011;52726;48.852;9.152;2022-11-15T03:41:47;2.50;;;1.52;;
65971;SDS011;52726;48.852;9.152;2022-11-15T03:46:56;6.22;;;2.15;;
65971;SDS011;52726;48.852;9.152;2022-11-15T03:49:31;6.25;;;2.00;;
65971;SDS011;52726;48.852;9.152;2022-11-15T03:52:04;4.13;;;2.05;;
65971;SDS011;52726;48.852;9.152;2022-11-15T03:54:47;4.55;;;2.08;;
65971;SDS011;52726;48.852;9.152;2022-11-15T03:57:16;7.30;;;2.05;;
65971;SDS011;52726;48.852;9.152;2022-11-15T03:59:42;1.85;;;1.70;;
65971;SDS011;52726;48.852;9.152;2022-11-15T04:02:07;4.70;;;2.35;;
65971;SDS011;52726;48.852;9.152;2022-11-15T04:04:36;2.90;;;2.28;;
65971;SDS011;52726;48.852;9.152;2022-11-15T04:07:07;4.05;;;2.60;;
65971;SDS011;52726;48.852;9.152;2022-11-15T04:09:32;4.97;;;2.83;;
65971;SDS011;52726;48.852;9.152;2022-11-15T04:12:00;4.25;;;2.85;;
65971;SDS011;52726;48.852;9.152;2022-11-15T04:14:31;4.22;;;2.17;;
65971;SDS011;52726;48.852;9.152;2022-11-15T04:19:53;2.92;;;2.40;;
65971;SDS011;52726;48.852;9.152;2022-11-15T04:22:46;8.13;;;2.70;;
65971;SDS011;52726;48.852;9.152;2022-11-15T04:25:32;4.05;;;2.80;;
65971;SDS011;52726;48.852;9.152;2022-11-15T04:27:58;5.55;;;2.63;;
65971;SDS011;52726;48.852;9.152;2022-11-15T04:30:27;5.53;;;2.95;;
65971;SDS011;52726;48.852;9.152;2022-11-15T04:32:52;4.43;;;2.63;;
65971;SDS011;52726;48.852;9.152;2022-11-15T04:35:18;5.53;;;2.80;;
65971;SDS011;52726;48.852;9.152;2022-11-15T04:37:44;4.57;;;2.53;;
65971;SDS011;52726;48.852;9.152;2022-11-15T04:40:12;4.65;;;2.95;;
65971;SDS011;52726;48.852;9.152;2022-11-15T04:42:40;4.97;;;2.83;;
65971;SDS011;52726;48.852;9.152;2022-11-15T04:45:10;5.18;;;2.50;;
65971;SDS011;52726;48.852;9.152;2022-11-15T04:47:36;3.38;;;2.28;;
65971;SDS011;52726;48.852;9.152;2022-11-15T04:50:08;5.00;;;2.28;;
65971;SDS011;52726;48.852;9.152;2022-11-15T04:52:37;3.90;;;2.22;;
65971;SDS011;52726;48.852;9.152;2022-11-15T04:55:03;5.03;;;2.58;;
65971;SDS011;52726;48.852;9.152;2022-11-15T04:57:29;3.65;;;2.08;;
65971;SDS011;52726;48.852;9.152;2022-11-15T05:02:41;8.57;;;2.47;;
65971;SDS011;52726;48.852;9.152;2022-11-15T05:05:25;2.53;;;2.28;;
65971;SDS011;52726;48.852;9.152;2022-11-15T05:07:51;4.32;;;2.33;;
65971;SDS011;52726;48.852;9.152;2022-11-15T05:10:16;2.85;;;2.22;;
65971;SDS011;52726;48.852;9.152;2022-11-15T05:12:47;4.15;;;2.30;;
65971;SDS011;52726;48.852;9.152;2022-11-15T05:15:12;3.70;;;2.35;;
65971;SDS011;52726;48.852;9.152;2022-11-15T05:17:38;4.28;;;2.53;;
65971;SDS011;52726;48.852;9.152;2022-11-15T05:20:04;3.90;;;2.40;;
65971;SDS011;52726;48.852;9.152;2022-11-15T05:22:30;3.65;;;2.15;;
65971;SDS011;52726;48.852;9.152;2022-11-15T05:24:58;7.28;;;2.28;;
65971;SDS011;52726;48.852;9.152;2022-11-15T05:27:30;4.10;;;2.20;;
65971;SDS011;52726;48.852;9.152;2022-11-15T05:30:10;3.33;;;2.40;;
65971;SDS011;52726;48.852;9.152;2022-11-15T05:32:36;2.38;;;1.92;;
65971;SDS011;52726;48.852;9.152;2022-11-15T05:35:02;6.53;;;2.05;;
65971;SDS011;52726;48.852;9.152;2022-11-15T05:37:36;4.15;;;2.40;;
65971;SDS011;52726;48.852;9.152;2022-11-15T05:40:04;3.10;;;1.98;;
65971;SDS011;52726;48.852;9.152;2022-11-15T05:42:30;5.22;;;2.42;;
65971;SDS011;52726;48.852;9.152;2022-11-15T05:44:56;4.43;;;2.00;;
65971;SDS011;52726;48.852;9.152;2022-11-15T05:47:24;7.13;;;2.30;;
65971;SDS011;52726;48.852;9.152;2022-11-15T05:49:57;3.05;;;2.00;;
65971;SDS011;52726;48.852;9.152;2022-11-15T05:52:29;3.40;;;2.17;;
65971;SDS011;52726;48.852;9.152;2022-11-15T05:54:59;5.43;;;2.30;;
65971;SDS011;52726;48.852;9.152;2022-11-15T05:57:26;3.65;;;2.35;;
65971;SDS011;52726;48.852;9.152;2022-11-15T05:59:51;4.45;;;2.50;;
65971;SDS011;52726;48.852;9.152;2022-11-15T06:02:20;2.88;;;2.50;;
65971;SDS011;52726;48.852;9.152;2022-11-15T06:04:46;3.80;;;2.25;;
65971;SDS011;52726;48.852;9.152;2022-11-15T06:07:11;6.00;;;3.08;;
65971;SDS011;52726;48.852;9.152;2022-11-15T06:09:39;3.53;;;2.60;;
65971;SDS011;52726;48.852;9.152;2022-11-15T06:12:07;8.43;;;2.72;;
65971;SDS011;52726;48.852;9.152;2022-11-15T06:14:33;4.00;;;2.45;;
65971;SDS011;52726;48.852;9.152;2022-11-15T06:16:58;4.63;;;2.70;;
65971;SDS011;52726;48.852;9.152;2022-11-15T06:19:24;5.57;;;2.55;;
65971;SDS011;52726;48.852;9.152;2022-11-15T06:21:50;4.00;;;2.40;;
65971;SDS011;52726;48.852;9.152;2022-11-15T06:24:16;6.28;;;2.72;;
65971;SDS011;52726;48.852;9.152;2022-11-15T06:26:42;2.40;;;1.88;;
65971;SDS011;52726;48.852;9.152;2022-11-15T06:29:08;5.00;;;2.33;;
65971;SDS011;52726;48.852;9.152;2022-11-15T06:31:34;5.97;;;3.28;;
65971;SDS011;52726;48.852;9.152;2022-11-15T06:34:00;6.03;;;3.20;;
65971;SDS011;52726;48.852;9.152;2022-11-15T06:36:25;4.28;;;2.92;;
65971;SDS011;52726;48.852;9.152;2022-11-15T06:38:51;6.25;;;3.50;;
65971;SDS011;52726;48.852;9.152;2022-11-15T06:41:16;6.85;;;3.28;;
65971;SDS011;52726;48.852;9.152;2022-11-15T06:43:47;7.03;;;3.70;;
65971;SDS011;52726;48.852;9.152;2022-11-15T06:46:12;8.50;;;3.58;;
65971;SDS011;52726;48.852;9.152;2022-11-15T06:48:40;6.70;;;4.18;;
65971;SDS011;52726;48.852;9.152;2022-11-15T06:51:06;8.18;;;3.15;;
65971;SDS011;52726;48.852;9.152;2022-11-15T06:53:32;8.05;;;3.40;;
65971;SDS011;52726;48.852;9.152;2022-11-15T06:56:01;6.10;;;3.03;;
65971;SDS011;52726;48.852;9.152;2022-11-15T06:58:36;5.22;;;2.80;;
65971;SDS011;52726;48.852;9.152;2022-11-15T07:01:06;5.95;;;2.53;;
65971;SDS011;52726;48.852;9.152;2022-11-15T07:03:37;5.40;;;2.70;;
65971;SDS011;52726;48.852;9.152;2022-11-15T07:06:06;5.18;;;2.58;;
65971;SDS011;52726;48.852;9.152;2022-11-15T07:08:33;3.08;;;2.33;;
65971;SDS011;52726;48.852;9.152;2022-11-15T07:11:04;3.53;;;2.22;;
65971;SDS011;52726;48.852;9.152;2022-11-15T07:13:34;6.65;;;2.60;;
65971;SDS011;52726;48.852;9.152;2022-11-15T07:16:02;6.30;;;2.63;;
65971;SDS011;52726;48.852;9.152;2022-11-15T07:18:53;7.00;;;2.78;;
65971;SDS011;52726;48.852;9.152;2022-11-15T07:21:19;4.03;;;2.63;;
65971;SDS011;52726;48.852;9.152;2022-11-15T07:23:47;8.00;;;2.40;;
65971;SDS011;52726;48.852;9.152;2022-11-15T07:26:12;4.78;;;2.20;;
65971;SDS011;52726;48.852;9.152;2022-11-15T07:28:38;5.05;;;2.13;;
65971;SDS011;52726;48.852;9.152;2022-11-15T07:31:07;4.03;;;1.90;;
65971;SDS011;52726;48.852;9.152;2022-11-15T07:33:36;4.38;;;2.17;;
65971;SDS011;52726;48.852;9.152;2022-11-15T07:36:05;4.38;;;1.90;;
65971;SDS011;52726;48.852;9.152;2022-11-15T07:38:34;2.58;;;1.80;;
65971;SDS011;52726;48.852;9.152;2022-11-15T07:41:02;4.45;;;1.90;;
65971;SDS011;52726;48.852;9.152;2022-11-15T07:43:32;4.22;;;1.85;;
65971;SDS011;52726;48.852;9.152;2022-11-15T07:46:09;7.60;;;2.03;;
65971;SDS011;52726;48.852;9.152;2022-11-15T07:48:40;5.93;;;2.10;;
65971;SDS011;52726;48.852;9.152;2022-11-15T07:51:10;2.72;;;2.00;;
65971;SDS011;52726;48.852;9.152;2022-11-15T07:53:44;5.25;;;2.28;;
65971;SDS011;52726;48.852;9.152;2022-11-15T07:56:13;5.10;;;2.58;;
65971;SDS011;52726;48.852;9.152;2022-11-15T07:58:50;3.95;;;2.42;;
65971;SDS011;52726;48.852;9.152;2022-11-15T08:01:16;7.68;;;3.38;;
65971;SDS011;52726;48.852;9.152;2022-11-15T08:03:44;12.05;;;3.28;;
65971;SDS011;52726;48.852;9.152;2022-11-15T08:06:09;4.35;;;2.72;;
65971;SDS011;52726;48.852;9.152;2022-11-15T08:08:40;5.03;;;3.05;;
65971;SDS011;52726;48.852;9.152;2022-11-15T08:11:06;9.73;;;2.85;;
65971;SDS011;52726;48.852;9.152;2022-11-15T08:13:31;6.75;;;3.13;;
65971;SDS011;52726;48.852;9.152;2022-11-15T08:15:59;4.35;;;2.80;;
65971;SDS011;52726;48.852;9.152;2022-11-15T08:18:30;10.75;;;3.92;;
65971;SDS011;52726;48.852;9.152;2022-11-15T08:20:59;4.20;;;3.00;;
65971;SDS011;52726;48.852;9.152;2022-11-15T08:23:29;7.40;;;2.90;;
65971;SDS011;52726;48.852;9.152;2022-11-15T08:26:00;7.40;;;2.78;;
65971;SDS011;52726;48.852;9.152;2022-11-15T08:28:30;5.43;;;2.88;;
65971;SDS011;52726;48.852;9.152;2022-11-15T08:30:58;4.13;;;2.40;;
65971;SDS011;52726;48.852;9.152;2022-11-15T08:33:26;5.88;;;2.80;;
65971;SDS011;52726;48.852;9.152;2022-11-15T08:35:56;5.45;;;2.97;;
65971;SDS011;52726;48.852;9.152;2022-11-15T08:38:28;3.85;;;2.50;;
65971;SDS011;52726;48.852;9.152;2022-11-15T08:41:02;6.75;;;2.88;;
65971;SDS011;52726;48.852;9.152;2022-11-15T08:43:32;8.30;;;3.03;;
65971;SDS011;52726;48.852;9.152;2022-11-15T08:46:08;3.78;;;2.40;;
65971;SDS011;52726;48.852;9.152;2022-11-15T08:48:40;6.47;;;2.90;;
65971;SDS011;52726;48.852;9.152;2022-11-15T08:51:11;6.60;;;3.00;;
65971;SDS011;52726;48.852;9.152;2022-11-15T08:53:42;5.63;;;2.63;;
65971;SDS011;52726;48.852;9.152;2022-11-15T08:56:18;5.97;;;3.05;;
65971;SDS011;52726;48.852;9.152;2022-11-15T08:58:49;7.43;;;3.25;;
65971;SDS011;52726;48.852;9.152;2022-11-15T09:01:26;6.55;;;2.67;;
65971;SDS011;52726;48.852;9.152;2022-11-15T09:03:59;7.95;;;2.90;;
65971;SDS011;52726;48.852;9.152;2022-11-15T09:06:38;7.65;;;3.28;;
65971;SDS011;52726;48.852;9.152;2022-11-15T09:09:14;10.82;;;2.67;;
65971;SDS011;52726;48.852;9.152;2022-11-15T09:11:44;6.32;;;2.58;;
65971;SDS011;52726;48.852;9.152;2022-11-15T09:14:12;9.27;;;3.25;;
65971;SDS011;52726;48.852;9.152;2022-11-15T09:17:01;7.38;;;3.70;;
65971;SDS011;52726;48.852;9.152;2022-11-15T09:19:35;6.50;;;3.10;;
65971;SDS011;52726;48.852;9.152;2022-11-15T09:22:06;7.05;;;2.90;;
65971;SDS011;52726;48.852;9.152;2022-11-15T09:24:32;9.38;;;3.90;;
65971;SDS011;52726;48.852;9.152;2022-11-15T09:26:58;6.43;;;3.33;;
65971;SDS011;52726;48.852;9.152;2022-11-15T09:29:26;5.10;;;3.10;;
65971;SDS011;52726;48.852;9.152;2022-11-15T09:31:52;5.80;;;3.53;;
65971;SDS011;52726;48.852;9.152;2022-11-15T09:34:18;5.05;;;2.97;;
65971;SDS011;52726;48.852;9.152;2022-11-15T09:36:48;6.38;;;3.65;;
65971;SDS011;52726;48.852;9.152;2022-11-15T09:39:14;6.72;;;3.75;;
65971;SDS011;52726;48.852;9.152;2022-11-15T09:41:44;6.25;;;3.15;;
65971;SDS011;52726;48.852;9.152;2022-11-15T09:44:41;7.78;;;3.70;;
65971;SDS011;52726;48.852;9.152;2022-11-15T09:50:41;5.28;;;2.95;;
65971;SDS011;52726;48.852;9.152;2022-11-15T09:53:28;6.20;;;3.15;;
65971;SDS011;52726;48.852;9.152;2022-11-15T09:56:09;7.45;;;3.28;;
65971;SDS011;52726;48.852;9.152;2022-11-15T10:04:25;6.85;;;3.03;;
65971;SDS011;52726;48.852;9.152;2022-11-15T10:09:55;8.57;;;3.17;;
65971;SDS011;52726;48.852;9.152;2022-11-15T10:12:28;8.75;;;3.22;;
65971;SDS011;52726;48.852;9.152;2022-11-15T10:15:05;7.85;;;2.97;;
65971;SDS011;52726;48.852;9.152;2022-11-15T10:20:47;4.55;;;2.78;;
65971;SDS011;52726;48.852;9.152;2022-11-15T10:23:18;4.57;;;3.00;;
65971;SDS011;52726;48.852;9.152;2022-11-15T10:25:50;12.07;;;3.13;;
65971;SDS011;52726;48.852;9.152;2022-11-15T10:31:10;8.15;;;3.53;;
65971;SDS011;52726;48.852;9.152;2022-11-15T10:34:14;12.90;;;4.15;;
65971;SDS011;52726;48.852;9.152;2022-11-15T10:36:57;8.48;;;3.13;;
65971;SDS011;52726;48.852;9.152;2022-11-15T10:39:41;6.30;;;3.15;;
65971;SDS011;52726;48.852;9.152;2022-11-15T10:42:25;5.95;;;3.50;;
65971;SDS011;52726;48.852;9.152;2022-11-15T10:44:52;11.55;;;4.40;;
65971;SDS011;52726;48.852;9.152;2022-11-15T10:47:28;8.30;;;3.97;;
65971;SDS011;52726;48.852;9.152;2022-11-15T10:53:28;7.75;;;3.42;;
65971;SDS011;52726;48.852;9.152;2022-11-15T10:56:16;10.82;;;4.25;;
65971;SDS011;52726;48.852;9.152;2022-11-15T10:58:51;6.18;;;3.60;;
65971;SDS011;52726;48.852;9.152;2022-11-15T11:01:29;6.37;;;3.30;;
65971;SDS011;52726;48.852;9.152;2022-11-15T11:03:58;8.40;;;3.80;;
65971;SDS011;52726;48.852;9.152;2022-11-15T11:06:28;7.88;;;3.20;;
65971;SDS011;52726;48.852;9.152;2022-11-15T11:09:03;11.30;;;3.53;;
65971;SDS011;52726;48.852;9.152;2022-11-15T11:14:35;5.45;;;3.20;;
65971;SDS011;52726;48.852;9.152;2022-11-15T11:22:32;5.75;;;3.30;;
65971;SDS011;52726;48.852;9.152;2022-11-15T11:31:42;7.40;;;3.63;;
65971;SDS011;52726;48.852;9.152;2022-11-15T11:47:44;6.72;;;3.55;;
65971;SDS011;52726;48.852;9.152;2022-11-15T11:50:21;6.30;;;3.13;;
65971;SDS011;52726;48.852;9.152;2022-11-15T12:01:17;5.03;;;2.78;;
65971;SDS011;52726;48.852;9.152;2022-11-15T12:09:35;8.60;;;3.60;;
65971;SDS011;52726;48.852;9.152;2022-11-15T12:17:19;8.05;;;3.42;;
65971;SDS011;52726;48.852;9.152;2022-11-15T12:20:02;7.50;;;3.15;;
65971;SDS011;52726;48.852;9.152;2022-11-15T12:22:40;8.57;;;3.40;;
65971;SDS011;52726;48.852;9.152;2022-11-15T12:33:38;7.57;;;3.47;;
65971;SDS011;52726;48.852;9.152;2022-11-15T12:36:10;12.68;;;3.42;;
65971;SDS011;52726;48.852;9.152;2022-11-15T12:43:51;5.80;;;2.95;;
65971;SDS011;52726;48.852;9.152;2022-11-15T12:49:00;7.47;;;3.45;;
65971;SDS011;52726;48.852;9.152;2022-11-15T13:02:36;5.47;;;3.00;;
65971;SDS011;52726;48.852;9.152;2022-11-15T13:17:51;9.38;;;3.90;;
65971;SDS011;52726;48.852;9.152;2022-11-15T13:20:31;9.52;;;4.07;;
65971;SDS011;52726;48.852;9.152;2022-11-15T13:28:47;7.30;;;3.38;;
65971;SDS011;52726;48.852;9.152;2022-11-15T13:34:16;5.60;;;2.97;;
65971;SDS011;52726;48.852;9.152;2022-11-15T13:36:47;7.10;;;3.13;;
65971;SDS011;52726;48.852;9.152;2022-11-15T13:39:26;7.68;;;3.70;;
65971;SDS011;52726;48.852;9.152;2022-11-15T13:42:02;8.10;;;3.60;;
65971;SDS011;52726;48.852;9.152;2022-11-15T13:44:30;13.23;;;3.92;;
65971;SDS011;52726;48.852;9.152;2022-11-15T13:49:39;9.07;;;3.65;;
65971;SDS011;52726;48.852;9.152;2022-11-15T13:52:13;7.68;;;3.20;;
65971;SDS011;52726;48.852;9.152;2022-11-15T14:00:02;7.32;;;2.97;;
65971;SDS011;52726;48.852;9.152;2022-11-15T14:02:31;5.75;;;3.05;;
65971;SDS011;52726;48.852;9.152;2022-11-15T14:05:04;7.50;;;2.50;;
65971;SDS011;52726;48.852;9.152;2022-11-15T14:07:56;5.40;;;2.92;;
65971;SDS011;52726;48.852;9.152;2022-11-15T14:10:30;7.07;;;2.70;;
65971;SDS011;52726;48.852;9.152;2022-11-15T14:12:58;5.93;;;3.33;;
65971;SDS011;52726;48.852;9.152;2022-11-15T14:15:26;4.10;;;2.67;;
65971;SDS011;52726;48.852;9.152;2022-11-15T14:17:53;6.60;;;2.92;;
65971;SDS011;52726;48.852;9.152;2022-11-15T14:20:24;3.50;;;2.45;;
65971;SDS011;52726;48.852;9.152;2022-11-15T14:22:58;5.78;;;2.75;;
65971;SDS011;52726;48.852;9.152;2022-11-15T14:25:32;6.13;;;2.67;;
65971;SDS011;52726;48.852;9.152;2022-11-15T14:30:33;5.78;;;2.80;;
65971;SDS011;52726;48.852;9.152;2022-11-15T14:32:58;8.20;;;3.50;;
65971;SDS011;52726;48.852;9.152;2022-11-15T14:35:24;5.63;;;3.15;;
65971;SDS011;52726;48.852;9.152;2022-11-15T14:37:49;5.78;;;3.10;;
65971;SDS011;52726;48.852;9.152;2022-11-15T14:40:16;11.75;;;3.13;;
65971;SDS011;52726;48.852;9.152;2022-11-15T14:42:44;7.07;;;3.50;;
65971;SDS011;52726;48.852;9.152;2022-11-15T14:47:51;10.40;;;3.08;;
65971;SDS011;52726;48.852;9.152;2022-11-15T14:51:33;6.85;;;3.30;;
65971;SDS011;52726;48.852;9.152;2022-11-15T14:53:58;6.00;;;3.42;;
65971;SDS011;52726;48.852;9.152;2022-11-15T14:56:23;9.38;;;3.10;;
65971;SDS011;52726;48.852;9.152;2022-11-15T14:58:49;6.80;;;3.35;;
65971;SDS011;52726;48.852;9.152;2022-11-15T15:01:19;9.95;;;3.67;;
65971;SDS011;52726;48.852;9.152;2022-11-15T15:03:46;5.38;;;3.35;;
65971;SDS011;52726;48.852;9.152;2022-11-15T15:06:12;7.03;;;3.20;;
65971;SDS011;52726;48.852;9.152;2022-11-15T15:08:39;9.68;;;4.38;;
65971;SDS011;52726;48.852;9.152;2022-11-15T15:11:15;6.50;;;2.75;;
65971;SDS011;52726;48.852;9.152;2022-11-15T15:13:45;6.78;;;3.75;;
65971;SDS011;52726;48.852;9.152;2022-11-15T15:16:11;6.70;;;2.65;;
65971;SDS011;52726;48.852;9.152;2022-11-15T15:18:36;7.47;;;2.80;;
65971;SDS011;52726;48.852;9.152;2022-11-15T15:21:01;7.53;;;2.78;;
65971;SDS011;52726;48.852;9.152;2022-11-15T15:23:32;6.63;;;2.90;;
65971;SDS011;52726;48.852;9.152;2022-11-15T15:25:58;5.30;;;3.08;;
65971;SDS011;52726;48.852;9.152;2022-11-15T15:28:23;4.40;;;2.80;;
65971;SDS011;52726;48.852;9.152;2022-11-15T15:30:48;6.18;;;2.80;;
65971;SDS011;52726;48.852;9.152;2022-11-15T15:33:17;5.55;;;3.50;;
65971;SDS011;52726;48.852;9.152;2022-11-15T15:35:43;3.95;;;2.80;;
65971;SDS011;52726;48.852;9.152;2022-11-15T15:38:11;4.43;;;2.60;;
65971;SDS011;52726;48.852;9.152;2022-11-15T15:40:37;4.45;;;2.72;;
65971;SDS011;52726;48.852;9.152;2022-11-15T15:43:03;5.13;;;2.60;;
65971;SDS011;52726;48.852;9.152;2022-11-15T15:45:29;5.97;;;2.60;;
65971;SDS011;52726;48.852;9.152;2022-11-15T15:47:55;4.82;;;2.40;;
65971;SDS011;52726;48.852;9.152;2022-11-15T15:50:28;7.05;;;2.80;;
65971;SDS011;52726;48.852;9.152;2022-11-15T15:52:58;6.25;;;2.90;;
65971;SDS011;52726;48.852;9.152;2022-11-15T15:55:24;6.03;;;3.05;;
65971;SDS011;52726;48.852;9.152;2022-11-15T15:57:50;4.40;;;2.80;;
65971;SDS011;52726;48.852;9.152;2022-11-15T16:00:16;5.72;;;2.60;;
65971;SDS011;52726;48.852;9.152;2022-11-15T16:02:43;6.00;;;2.90;;
65971;SDS011;52726;48.852;9.152;2022-11-15T16:05:09;8.38;;;3.38;;
65971;SDS011;52726;48.852;9.152;2022-11-15T16:07:35;7.30;;;2.75;;
65971;SDS011;52726;48.852;9.152;2022-11-15T16:10:04;6.38;;;3.17;;
65971;SDS011;52726;48.852;9.152;2022-11-15T16:12:54;6.53;;;3.05;;
65971;SDS011;52726;48.852;9.152;2022-11-15T16:15:21;7.97;;;3.20;;
65971;SDS011;52726;48.852;9.152;2022-11-15T16:17:52;6.68;;;3.35;;
65971;SDS011;52726;48.852;9.152;2022-11-15T16:22:56;7.47;;;3.10;;
65971;SDS011;52726;48.852;9.152;2022-11-15T16:25:23;5.65;;;2.72;;
65971;SDS011;52726;48.852;9.152;2022-11-15T16:27:48;4.75;;;3.13;;
65971;SDS011;52726;48.852;9.152;2022-11-15T16:30:14;7.00;;;2.95;;
65971;SDS011;52726;48.852;9.152;2022-11-15T16:32:41;6.57;;;3.30;;
65971;SDS011;52726;48.852;9.152;2022-11-15T16:35:07;6.20;;;3.00;;
65971;SDS011;52726;48.852;9.152;2022-11-15T16:37:36;3.83;;;2.67;;
65971;SDS011;52726;48.852;9.152;2022-11-15T16:40:01;7.20;;;3.08;;
65971;SDS011;52726;48.852;9.152;2022-11-15T16:42:27;4.57;;;2.95;;
65971;SDS011;52726;48.852;9.152;2022-11-15T16:44:52;5.13;;;2.80;;
65971;SDS011;52726;48.852;9.152;2022-11-15T16:47:18;5.22;;;2.45;;
65971;SDS011;52726;48.852;9.152;2022-11-15T16:49:44;2.80;;;2.50;;
65971;SDS011;52726;48.852;9.152;2022-11-15T16:52:10;4.32;;;2.63;;
65971;SDS011;52726;48.852;9.152;2022-11-15T16:54:35;4.75;;;2.75;;
65971;SDS011;52726;48.852;9.152;2022-11-15T16:57:01;14.15;;;3.47;;
65971;SDS011;52726;48.852;9.152;2022-11-15T16:59:26;4.65;;;2.67;;
65971;SDS011;52726;48.852;9.152;2022-11-15T17:01:51;6.45;;;2.95;;
65971;SDS011;52726;48.852;9.152;2022-11-15T17:04:17;4.25;;;3.13;;
65971;SDS011;52726;48.852;9.152;2022-11-15T17:06:45;8.02;;;3.67;;
65971;SDS011;52726;48.852;9.152;2022-11-15T17:09:16;7.65;;;4.28;;
65971;SDS011;52726;48.852;9.152;2022-11-15T17:11:48;7.03;;;4.05;;
65971;SDS011;52726;48.852;9.152;2022-11-15T17:14:13;11.13;;;3.72;;
65971;SDS011;52726;48.852;9.152;2022-11-15T17:16:40;7.45;;;3.92;;
65971;SDS011;52726;48.852;9.152;2022-11-15T17:19:26;9.75;;;3.67;;
65971;SDS011;52726;48.852;9.152;2022-11-15T17:21:51;11.70;;;3.88;;
65971;SDS011;52726;48.852;9.152;2022-11-15T17:24:18;5.78;;;3.63;;
65971;SDS011;52726;48.852;9.152;2022-11-15T17:26:44;7.85;;;3.85;;
65971;SDS011;52726;48.852;9.152;2022-11-15T17:29:10;7.80;;;3.38;;
65971;SDS011;52726;48.852;9.152;2022-11-15T17:31:35;5.22;;;3.08;;
65971;SDS011;52726;48.852;9.152;2022-11-15T17:34:02;5.95;;;2.92;;
65971;SDS011;52726;48.852;9.152;2022-11-15T17:36:29;8.98;;;3.28;;
65971;SDS011;52726;48.852;9.152;2022-11-15T17:38:54;9.55;;;4.25;;
65971;SDS011;52726;48.852;9.152;2022-11-15T17:41:20;9.05;;;3.75;;
65971;SDS011;52726;48.852;9.152;2022-11-15T17:43:45;8.98;;;3.75;;
65971;SDS011;52726;48.852;9.152;2022-11-15T17:46:12;6.30;;;3.33;;
65971;SDS011;52726;48.852;9.152;2022-11-15T17:48:39;9.25;;;4.20;;
65971;SDS011;52726;48.852;9.152;2022-11-15T17:51:06;11.98;;;3.63;;
65971;SDS011;52726;48.852;9.152;2022-11-15T17:53:36;8.30;;;3.50;;